sensor_id;sensor_type;location;lat;lon;timestamp;P1;durP1;ratioP1;P2;durP2;ratioP2
78131;SDS011;67381;47.672;9.380;2023-02-01T00:01:31;6.68;;;3.65;;
78131;SDS011;67381;47.672;9.380;2023-02-01T00:03:56;6.25;;;3.47;;
78131;SDS011;67381;47.672;9.380;2023-02-01T00:06:21;6.78;;;3.45;;
78131;SDS011;67381;47.672;9.380;2023-02-01T00:08:47;6.93;;;4.13;;
78131;SDS011;67381;47.672;9.380;2023-02-01T00:11:12;7.53;;;3.95;;
78131;SDS011;67381;47.672;9.380;2023-02-01T00:13:39;8.02;;;4.53;;
78131;SDS011;67381;47.672;9.380;2023-02-01T00:16:10;5.50;;;3.10;;
78131;SDS011;67381;47.672;9.380;2023-02-01T00:18:41;5.45;;;3.03;;
78131;SDS011;67381;47.672;9.380;2023-02-01T00:21:07;5.20;;;3.22;;
78131;SDS011;67381;47.672;9.380;2023-02-01T00:23:33;7.68;;;3.63;;
78131;SDS011;67381;47.672;9.380;2023-02-01T00:26:02;6.03;;;4.75;;
78131;SDS011;67381;47.672;9.380;2023-02-01T00:28:28;11.63;;;4.28;;
78131;SDS011;67381;47.672;9.380;2023-02-01T00:30:57;5.32;;;3.65;;
78131;SDS011;67381;47.672;9.380;2023-02-01T00:33:23;6.82;;;3.78;;
78131;SDS011;67381;47.672;9.380;2023-02-01T00:35:48;6.28;;;3.65;;
78131;SDS011;67381;47.672;9.380;2023-02-01T00:38:14;6.40;;;3.42;;
78131;SDS011;67381;47.672;9.380;2023-02-01T00:40:39;6.30;;;3.65;;
78131;SDS011;67381;47.672;9.380;2023-02-01T00:43:04;7.75;;;3.80;;
78131;SDS011;67381;47.672;9.380;2023-02-01T00:45:29;7.43;;;3.80;;
78131;SDS011;67381;47.672;9.380;2023-02-01T00:47:55;5.80;;;3.38;;
78131;SDS011;67381;47.672;9.380;2023-02-01T00:50:20;5.55;;;3.55;;
78131;SDS011;67381;47.672;9.380;2023-02-01T00:52:46;5.15;;;3.38;;
78131;SDS011;67381;47.672;9.380;2023-02-01T00:55:11;7.18;;;3.50;;
78131;SDS011;67381;47.672;9.380;2023-02-01T00:57:36;6.70;;;3.65;;
78131;SDS011;67381;47.672;9.380;2023-02-01T01:00:02;10.25;;;4.10;;
78131;SDS011;67381;47.672;9.380;2023-02-01T01:02:28;8.00;;;3.65;;
78131;SDS011;67381;47.672;9.380;2023-02-01T01:04:53;9.85;;;3.78;;
78131;SDS011;67381;47.672;9.380;2023-02-01T01:07:19;4.93;;;3.15;;
78131;SDS011;67381;47.672;9.380;2023-02-01T01:09:44;5.75;;;3.38;;
78131;SDS011;67381;47.672;9.380;2023-02-01T01:12:09;4.75;;;3.00;;
78131;SDS011;67381;47.672;9.380;2023-02-01T01:14:34;7.25;;;3.80;;
78131;SDS011;67381;47.672;9.380;2023-02-01T01:17:00;8.18;;;3.22;;
78131;SDS011;67381;47.672;9.380;2023-02-01T01:19:25;7.07;;;3.88;;
78131;SDS011;67381;47.672;9.380;2023-02-01T01:21:50;5.78;;;3.80;;
78131;SDS011;67381;47.672;9.380;2023-02-01T01:24:16;8.00;;;4.40;;
78131;SDS011;67381;47.672;9.380;2023-02-01T01:26:41;6.90;;;3.75;;
78131;SDS011;67381;47.672;9.380;2023-02-01T01:29:08;7.43;;;3.85;;
78131;SDS011;67381;47.672;9.380;2023-02-01T01:31:34;6.38;;;3.45;;
78131;SDS011;67381;47.672;9.380;2023-02-01T01:33:59;9.07;;;3.78;;
78131;SDS011;67381;47.672;9.380;2023-02-01T01:36:25;10.45;;;5.00;;
78131;SDS011;67381;47.672;9.380;2023-02-01T01:38:52;5.50;;;3.05;;
78131;SDS011;67381;47.672;9.380;2023-02-01T01:41:21;9.30;;;4.38;;
78131;SDS011;67381;47.672;9.380;2023-02-01T01:43:53;7.25;;;3.72;;
78131;SDS011;67381;47.672;9.380;2023-02-01T01:46:25;5.78;;;3.50;;
78131;SDS011;67381;47.672;9.380;2023-02-01T01:48:57;6.55;;;3.92;;
78131;SDS011;67381;47.672;9.380;2023-02-01T01:51:47;9.25;;;4.50;;
78131;SDS011;67381;47.672;9.380;2023-02-01T01:54:33;13.00;;;4.60;;
78131;SDS011;67381;47.672;9.380;2023-02-01T01:57:12;8.02;;;4.65;;
78131;SDS011;67381;47.672;9.380;2023-02-01T01:59:40;5.65;;;3.55;;
78131;SDS011;67381;47.672;9.380;2023-02-01T02:02:06;7.85;;;4.25;;
78131;SDS011;67381;47.672;9.380;2023-02-01T02:04:32;8.18;;;3.88;;
78131;SDS011;67381;47.672;9.380;2023-02-01T02:07:03;8.55;;;3.75;;
78131;SDS011;67381;47.672;9.380;2023-02-01T02:09:30;8.20;;;3.83;;
78131;SDS011;67381;47.672;9.380;2023-02-01T02:11:56;7.28;;;3.72;;
78131;SDS011;67381;47.672;9.380;2023-02-01T02:16:51;8.00;;;4.07;;
78131;SDS011;67381;47.672;9.380;2023-02-01T02:36:30;8.18;;;5.20;;
78131;SDS011;67381;47.672;9.380;2023-02-01T02:45:06;7.70;;;4.35;;
78131;SDS011;67381;47.672;9.380;2023-02-01T02:51:04;9.60;;;5.10;;
78131;SDS011;67381;47.672;9.380;2023-02-01T02:56:54;8.05;;;5.05;;
78131;SDS011;67381;47.672;9.380;2023-02-01T02:59:39;7.85;;;4.57;;
78131;SDS011;67381;47.672;9.380;2023-02-01T03:02:25;7.40;;;5.30;;
78131;SDS011;67381;47.672;9.380;2023-02-01T03:05:10;9.82;;;4.18;;
78131;SDS011;67381;47.672;9.380;2023-02-01T03:13:04;7.63;;;4.72;;
78131;SDS011;67381;47.672;9.380;2023-02-01T03:18:03;13.75;;;5.93;;
78131;SDS011;67381;47.672;9.380;2023-02-01T03:20:51;13.05;;;5.80;;
78131;SDS011;67381;47.672;9.380;2023-02-01T03:23:18;11.25;;;6.20;;
78131;SDS011;67381;47.672;9.380;2023-02-01T03:25:46;14.98;;;6.22;;
78131;SDS011;67381;47.672;9.380;2023-02-01T03:28:12;10.05;;;4.90;;
78131;SDS011;67381;47.672;9.380;2023-02-01T03:30:43;8.40;;;4.75;;
78131;SDS011;67381;47.672;9.380;2023-02-01T03:33:10;8.15;;;5.25;;
78131;SDS011;67381;47.672;9.380;2023-02-01T03:38:21;9.60;;;4.97;;
78131;SDS011;67381;47.672;9.380;2023-02-01T03:41:01;7.63;;;4.80;;
78131;SDS011;67381;47.672;9.380;2023-02-01T03:44:01;9.73;;;5.65;;
78131;SDS011;67381;47.672;9.380;2023-02-01T03:47:25;7.85;;;5.15;;
78131;SDS011;67381;47.672;9.380;2023-02-01T03:49:41;8.90;;;5.38;;
78131;SDS011;67381;47.672;9.380;2023-02-01T03:52:10;11.15;;;5.20;;
78131;SDS011;67381;47.672;9.380;2023-02-01T03:54:38;7.65;;;4.80;;
78131;SDS011;67381;47.672;9.380;2023-02-01T03:57:05;10.38;;;5.20;;
78131;SDS011;67381;47.672;9.380;2023-02-01T03:59:33;9.02;;;5.30;;
78131;SDS011;67381;47.672;9.380;2023-02-01T04:01:58;9.05;;;5.53;;
78131;SDS011;67381;47.672;9.380;2023-02-01T04:04:24;9.32;;;5.35;;
78131;SDS011;67381;47.672;9.380;2023-02-01T04:06:50;7.45;;;4.90;;
78131;SDS011;67381;47.672;9.380;2023-02-01T04:09:15;6.88;;;5.18;;
78131;SDS011;67381;47.672;9.380;2023-02-01T04:14:06;12.18;;;5.35;;
78131;SDS011;67381;47.672;9.380;2023-02-01T04:16:32;10.50;;;5.25;;
78131;SDS011;67381;47.672;9.380;2023-02-01T04:18:57;11.73;;;5.88;;
78131;SDS011;67381;47.672;9.380;2023-02-01T04:21:23;7.45;;;4.28;;
78131;SDS011;67381;47.672;9.380;2023-02-01T04:23:50;8.70;;;5.30;;
78131;SDS011;67381;47.672;9.380;2023-02-01T04:26:15;10.38;;;5.88;;
78131;SDS011;67381;47.672;9.380;2023-02-01T04:28:41;8.85;;;5.15;;
78131;SDS011;67381;47.672;9.380;2023-02-01T04:31:06;12.95;;;5.50;;
78131;SDS011;67381;47.672;9.380;2023-02-01T04:33:32;8.02;;;4.68;;
78131;SDS011;67381;47.672;9.380;2023-02-01T04:35:57;8.50;;;5.35;;
78131;SDS011;67381;47.672;9.380;2023-02-01T04:38:22;8.15;;;3.90;;
78131;SDS011;67381;47.672;9.380;2023-02-01T04:40:48;8.23;;;5.15;;
78131;SDS011;67381;47.672;9.380;2023-02-01T04:43:14;9.13;;;4.57;;
78131;SDS011;67381;47.672;9.380;2023-02-01T04:45:39;8.40;;;5.38;;
78131;SDS011;67381;47.672;9.380;2023-02-01T04:48:05;9.48;;;6.15;;
78131;SDS011;67381;47.672;9.380;2023-02-01T04:50:30;7.57;;;4.25;;
78131;SDS011;67381;47.672;9.380;2023-02-01T04:55:21;9.90;;;5.40;;
78131;SDS011;67381;47.672;9.380;2023-02-01T04:57:46;8.40;;;5.22;;
78131;SDS011;67381;47.672;9.380;2023-02-01T05:02:38;11.48;;;5.85;;
78131;SDS011;67381;47.672;9.380;2023-02-01T05:05:03;9.82;;;5.22;;
78131;SDS011;67381;47.672;9.380;2023-02-01T05:07:29;15.10;;;5.93;;
78131;SDS011;67381;47.672;9.380;2023-02-01T05:12:20;7.83;;;5.57;;
78131;SDS011;67381;47.672;9.380;2023-02-01T05:15:04;10.15;;;6.10;;
78131;SDS011;67381;47.672;9.380;2023-02-01T05:17:30;11.75;;;5.47;;
78131;SDS011;67381;47.672;9.380;2023-02-01T05:19:55;11.07;;;5.40;;
78131;SDS011;67381;47.672;9.380;2023-02-01T05:22:21;9.27;;;5.50;;
78131;SDS011;67381;47.672;9.380;2023-02-01T05:24:46;8.27;;;5.07;;
78131;SDS011;67381;47.672;9.380;2023-02-01T05:27:11;8.25;;;5.82;;
78131;SDS011;67381;47.672;9.380;2023-02-01T05:32:02;9.37;;;4.83;;
78131;SDS011;67381;47.672;9.380;2023-02-01T05:36:53;11.83;;;6.13;;
78131;SDS011;67381;47.672;9.380;2023-02-01T05:39:18;9.00;;;5.13;;
78131;SDS011;67381;47.672;9.380;2023-02-01T05:44:09;8.57;;;4.33;;
78131;SDS011;67381;47.672;9.380;2023-02-01T05:46:35;10.13;;;5.28;;
78131;SDS011;67381;47.672;9.380;2023-02-01T05:51:26;7.03;;;4.50;;
78131;SDS011;67381;47.672;9.380;2023-02-01T05:56:17;10.20;;;5.03;;
78131;SDS011;67381;47.672;9.380;2023-02-01T05:58:42;8.88;;;4.75;;
78131;SDS011;67381;47.672;9.380;2023-02-01T06:01:07;9.13;;;4.57;;
78131;SDS011;67381;47.672;9.380;2023-02-01T06:05:58;7.97;;;4.87;;
78131;SDS011;67381;47.672;9.380;2023-02-01T06:08:25;9.02;;;4.95;;
78131;SDS011;67381;47.672;9.380;2023-02-01T06:13:16;9.00;;;5.10;;
78131;SDS011;67381;47.672;9.380;2023-02-01T06:18:08;8.68;;;4.72;;
78131;SDS011;67381;47.672;9.380;2023-02-01T06:20:34;7.25;;;4.63;;
78131;SDS011;67381;47.672;9.380;2023-02-01T06:22:59;9.00;;;5.43;;
78131;SDS011;67381;47.672;9.380;2023-02-01T06:25:24;8.75;;;5.13;;
78131;SDS011;67381;47.672;9.380;2023-02-01T06:30:15;7.07;;;4.03;;
78131;SDS011;67381;47.672;9.380;2023-02-01T06:32:41;10.43;;;4.28;;
78131;SDS011;67381;47.672;9.380;2023-02-01T06:35:07;9.82;;;5.10;;
78131;SDS011;67381;47.672;9.380;2023-02-01T06:37:36;9.82;;;4.25;;
78131;SDS011;67381;47.672;9.380;2023-02-01T06:40:01;12.13;;;4.50;;
78131;SDS011;67381;47.672;9.380;2023-02-01T06:42:27;6.75;;;4.35;;
78131;SDS011;67381;47.672;9.380;2023-02-01T06:44:52;7.50;;;4.38;;
78131;SDS011;67381;47.672;9.380;2023-02-01T06:47:17;10.90;;;5.13;;
78131;SDS011;67381;47.672;9.380;2023-02-01T06:49:42;8.07;;;4.63;;
78131;SDS011;67381;47.672;9.380;2023-02-01T06:54:33;9.40;;;4.67;;
78131;SDS011;67381;47.672;9.380;2023-02-01T06:56:59;8.73;;;3.90;;
78131;SDS011;67381;47.672;9.380;2023-02-01T06:59:24;8.45;;;5.53;;
78131;SDS011;67381;47.672;9.380;2023-02-01T07:01:50;6.97;;;4.80;;
78131;SDS011;67381;47.672;9.380;2023-02-01T07:04:15;6.55;;;4.38;;
78131;SDS011;67381;47.672;9.380;2023-02-01T07:06:40;10.63;;;5.15;;
78131;SDS011;67381;47.672;9.380;2023-02-01T07:09:06;8.50;;;4.78;;
78131;SDS011;67381;47.672;9.380;2023-02-01T07:11:32;6.00;;;4.10;;
78131;SDS011;67381;47.672;9.380;2023-02-01T07:13:57;7.25;;;4.07;;
78131;SDS011;67381;47.672;9.380;2023-02-01T07:16:23;7.60;;;4.60;;
78131;SDS011;67381;47.672;9.380;2023-02-01T07:18:49;6.20;;;4.22;;
78131;SDS011;67381;47.672;9.380;2023-02-01T07:21:15;9.73;;;5.40;;
78131;SDS011;67381;47.672;9.380;2023-02-01T07:23:40;9.10;;;5.55;;
78131;SDS011;67381;47.672;9.380;2023-02-01T07:26:06;8.75;;;4.70;;
78131;SDS011;67381;47.672;9.380;2023-02-01T07:28:33;7.53;;;4.47;;
78131;SDS011;67381;47.672;9.380;2023-02-01T07:31:03;9.55;;;5.07;;
78131;SDS011;67381;47.672;9.380;2023-02-01T07:33:30;7.88;;;5.15;;
78131;SDS011;67381;47.672;9.380;2023-02-01T07:35:55;7.40;;;5.20;;
78131;SDS011;67381;47.672;9.380;2023-02-01T07:38:20;7.75;;;4.63;;
78131;SDS011;67381;47.672;9.380;2023-02-01T07:40:48;10.68;;;4.90;;
78131;SDS011;67381;47.672;9.380;2023-02-01T07:43:13;9.77;;;4.88;;
78131;SDS011;67381;47.672;9.380;2023-02-01T07:45:39;10.25;;;4.28;;
78131;SDS011;67381;47.672;9.380;2023-02-01T07:48:04;9.27;;;4.57;;
78131;SDS011;67381;47.672;9.380;2023-02-01T07:50:29;10.23;;;5.53;;
78131;SDS011;67381;47.672;9.380;2023-02-01T07:52:55;10.68;;;4.40;;
78131;SDS011;67381;47.672;9.380;2023-02-01T07:55:21;8.88;;;5.90;;
78131;SDS011;67381;47.672;9.380;2023-02-01T07:57:46;7.72;;;4.75;;
78131;SDS011;67381;47.672;9.380;2023-02-01T08:02:59;7.38;;;4.60;;
78131;SDS011;67381;47.672;9.380;2023-02-01T08:05:24;9.75;;;5.35;;
78131;SDS011;67381;47.672;9.380;2023-02-01T08:07:49;8.57;;;5.15;;
78131;SDS011;67381;47.672;9.380;2023-02-01T08:10:15;9.38;;;5.32;;
78131;SDS011;67381;47.672;9.380;2023-02-01T08:12:41;8.88;;;5.40;;
78131;SDS011;67381;47.672;9.380;2023-02-01T08:15:07;10.68;;;5.47;;
78131;SDS011;67381;47.672;9.380;2023-02-01T08:17:32;8.05;;;5.18;;
78131;SDS011;67381;47.672;9.380;2023-02-01T08:19:58;9.73;;;5.45;;
78131;SDS011;67381;47.672;9.380;2023-02-01T08:22:24;10.38;;;6.43;;
78131;SDS011;67381;47.672;9.380;2023-02-01T08:24:49;8.73;;;4.93;;
78131;SDS011;67381;47.672;9.380;2023-02-01T08:27:14;10.10;;;5.30;;
78131;SDS011;67381;47.672;9.380;2023-02-01T08:29:40;8.25;;;5.03;;
78131;SDS011;67381;47.672;9.380;2023-02-01T08:32:05;8.98;;;5.43;;
78131;SDS011;67381;47.672;9.380;2023-02-01T08:34:31;9.95;;;6.05;;
78131;SDS011;67381;47.672;9.380;2023-02-01T08:36:56;9.48;;;5.93;;
78131;SDS011;67381;47.672;9.380;2023-02-01T08:39:25;10.02;;;5.72;;
78131;SDS011;67381;47.672;9.380;2023-02-01T08:41:50;12.80;;;7.55;;
78131;SDS011;67381;47.672;9.380;2023-02-01T08:44:34;12.50;;;6.80;;
78131;SDS011;67381;47.672;9.380;2023-02-01T08:47:00;11.00;;;6.93;;
78131;SDS011;67381;47.672;9.380;2023-02-01T08:49:25;11.50;;;6.50;;
78131;SDS011;67381;47.672;9.380;2023-02-01T08:51:51;10.45;;;6.47;;
78131;SDS011;67381;47.672;9.380;2023-02-01T08:54:16;10.13;;;6.10;;
78131;SDS011;67381;47.672;9.380;2023-02-01T08:56:41;10.57;;;7.18;;
78131;SDS011;67381;47.672;9.380;2023-02-01T08:59:07;10.18;;;6.20;;
78131;SDS011;67381;47.672;9.380;2023-02-01T09:01:32;11.60;;;6.50;;
78131;SDS011;67381;47.672;9.380;2023-02-01T09:03:57;9.77;;;6.25;;
78131;SDS011;67381;47.672;9.380;2023-02-01T09:06:23;11.00;;;6.70;;
78131;SDS011;67381;47.672;9.380;2023-02-01T09:08:48;9.88;;;5.88;;
78131;SDS011;67381;47.672;9.380;2023-02-01T09:11:15;12.60;;;7.28;;
78131;SDS011;67381;47.672;9.380;2023-02-01T09:13:42;10.75;;;6.30;;
78131;SDS011;67381;47.672;9.380;2023-02-01T09:18:33;9.52;;;5.53;;
78131;SDS011;67381;47.672;9.380;2023-02-01T09:23:23;7.60;;;4.77;;
78131;SDS011;67381;47.672;9.380;2023-02-01T09:25:49;9.13;;;5.22;;
78131;SDS011;67381;47.672;9.380;2023-02-01T09:28:16;7.97;;;4.90;;
78131;SDS011;67381;47.672;9.380;2023-02-01T09:30:42;8.70;;;5.57;;
78131;SDS011;67381;47.672;9.380;2023-02-01T09:33:07;7.85;;;4.47;;
78131;SDS011;67381;47.672;9.380;2023-02-01T09:35:32;9.60;;;5.35;;
78131;SDS011;67381;47.672;9.380;2023-02-01T09:37:58;8.60;;;4.47;;
78131;SDS011;67381;47.672;9.380;2023-02-01T09:40:23;7.63;;;3.95;;
78131;SDS011;67381;47.672;9.380;2023-02-01T09:45:32;12.40;;;5.07;;
78131;SDS011;67381;47.672;9.380;2023-02-01T09:50:52;8.75;;;4.93;;
78131;SDS011;67381;47.672;9.380;2023-02-01T09:53:29;7.15;;;4.55;;
78131;SDS011;67381;47.672;9.380;2023-02-01T09:56:02;7.30;;;4.63;;
78131;SDS011;67381;47.672;9.380;2023-02-01T09:58:38;8.60;;;5.13;;
78131;SDS011;67381;47.672;9.380;2023-02-01T10:01:13;10.35;;;4.55;;
78131;SDS011;67381;47.672;9.380;2023-02-01T10:03:42;8.35;;;4.78;;
78131;SDS011;67381;47.672;9.380;2023-02-01T10:06:24;7.43;;;4.43;;
78131;SDS011;67381;47.672;9.380;2023-02-01T10:22:17;8.13;;;3.90;;
78131;SDS011;67381;47.672;9.380;2023-02-01T10:25:11;7.35;;;4.45;;
78131;SDS011;67381;47.672;9.380;2023-02-01T10:27:40;7.50;;;4.15;;
78131;SDS011;67381;47.672;9.380;2023-02-01T10:30:14;6.60;;;4.05;;
78131;SDS011;67381;47.672;9.380;2023-02-01T10:32:43;6.95;;;4.47;;
78131;SDS011;67381;47.672;9.380;2023-02-01T10:35:10;7.47;;;3.78;;
78131;SDS011;67381;47.672;9.380;2023-02-01T10:37:43;6.03;;;4.03;;
78131;SDS011;67381;47.672;9.380;2023-02-01T10:42:38;8.07;;;4.10;;
78131;SDS011;67381;47.672;9.380;2023-02-01T10:45:04;10.25;;;4.38;;
78131;SDS011;67381;47.672;9.380;2023-02-01T10:47:31;6.72;;;3.45;;
78131;SDS011;67381;47.672;9.380;2023-02-01T10:55:48;5.97;;;3.63;;
78131;SDS011;67381;47.672;9.380;2023-02-01T10:58:31;5.20;;;3.08;;
78131;SDS011;67381;47.672;9.380;2023-02-01T11:00:58;4.82;;;3.42;;
78131;SDS011;67381;47.672;9.380;2023-02-01T11:11:30;6.45;;;3.15;;
78131;SDS011;67381;47.672;9.380;2023-02-01T11:13:57;5.13;;;3.45;;
78131;SDS011;67381;47.672;9.380;2023-02-01T11:16:34;7.60;;;3.47;;
78131;SDS011;67381;47.672;9.380;2023-02-01T11:19:01;8.00;;;3.65;;
78131;SDS011;67381;47.672;9.380;2023-02-01T11:21:27;8.07;;;3.67;;
78131;SDS011;67381;47.672;9.380;2023-02-01T11:23:53;10.18;;;3.47;;
78131;SDS011;67381;47.672;9.380;2023-02-01T11:26:25;5.18;;;3.17;;
78131;SDS011;67381;47.672;9.380;2023-02-01T11:28:54;5.22;;;3.17;;
78131;SDS011;67381;47.672;9.380;2023-02-01T11:31:22;4.90;;;2.83;;
78131;SDS011;67381;47.672;9.380;2023-02-01T11:33:50;6.00;;;3.40;;
78131;SDS011;67381;47.672;9.380;2023-02-01T11:36:20;8.05;;;3.75;;
78131;SDS011;67381;47.672;9.380;2023-02-01T11:38:54;5.57;;;3.08;;
78131;SDS011;67381;47.672;9.380;2023-02-01T11:41:32;7.07;;;4.65;;
78131;SDS011;67381;47.672;9.380;2023-02-01T11:43:59;6.38;;;3.63;;
78131;SDS011;67381;47.672;9.380;2023-02-01T11:46:30;7.28;;;4.35;;
78131;SDS011;67381;47.672;9.380;2023-02-01T11:48:57;4.55;;;3.00;;
78131;SDS011;67381;47.672;9.380;2023-02-01T11:52:04;6.00;;;3.65;;
78131;SDS011;67381;47.672;9.380;2023-02-01T12:17:08;5.82;;;3.10;;
78131;SDS011;67381;47.672;9.380;2023-02-01T12:19:42;5.15;;;2.72;;
78131;SDS011;67381;47.672;9.380;2023-02-01T12:30:19;5.72;;;3.22;;
78131;SDS011;67381;47.672;9.380;2023-02-01T12:33:11;7.65;;;3.25;;
78131;SDS011;67381;47.672;9.380;2023-02-01T12:46:41;4.57;;;3.03;;
78131;SDS011;67381;47.672;9.380;2023-02-01T12:49:30;6.60;;;3.75;;
78131;SDS011;67381;47.672;9.380;2023-02-01T12:52:06;9.73;;;3.70;;
78131;SDS011;67381;47.672;9.380;2023-02-01T12:57:30;5.63;;;3.30;;
78131;SDS011;67381;47.672;9.380;2023-02-01T13:02:54;6.47;;;3.05;;
78131;SDS011;67381;47.672;9.380;2023-02-01T13:05:30;5.00;;;3.13;;
78131;SDS011;67381;47.672;9.380;2023-02-01T13:08:19;6.35;;;2.88;;
78131;SDS011;67381;47.672;9.380;2023-02-01T13:10:50;4.68;;;2.60;;
78131;SDS011;67381;47.672;9.380;2023-02-01T13:13:26;6.90;;;2.92;;
78131;SDS011;67381;47.672;9.380;2023-02-01T13:15:57;6.85;;;3.03;;
78131;SDS011;67381;47.672;9.380;2023-02-01T13:18:31;6.43;;;2.92;;
78131;SDS011;67381;47.672;9.380;2023-02-01T13:21:03;5.22;;;3.10;;
78131;SDS011;67381;47.672;9.380;2023-02-01T13:23:36;7.13;;;2.88;;
78131;SDS011;67381;47.672;9.380;2023-02-01T13:26:03;8.48;;;3.60;;
78131;SDS011;67381;47.672;9.380;2023-02-01T13:28:35;6.18;;;3.08;;
78131;SDS011;67381;47.672;9.380;2023-02-01T13:36:49;6.95;;;3.60;;
78131;SDS011;67381;47.672;9.380;2023-02-01T13:39:28;7.05;;;3.90;;
78131;SDS011;67381;47.672;9.380;2023-02-01T13:45:22;8.55;;;3.33;;
78131;SDS011;67381;47.672;9.380;2023-02-01T13:47:51;5.63;;;3.22;;
78131;SDS011;67381;47.672;9.380;2023-02-01T13:50:21;3.83;;;2.28;;
78131;SDS011;67381;47.672;9.380;2023-02-01T13:52:51;7.15;;;2.17;;
78131;SDS011;67381;47.672;9.380;2023-02-01T13:57:44;8.23;;;3.20;;
78131;SDS011;67381;47.672;9.380;2023-02-01T14:02:50;8.88;;;2.40;;
78131;SDS011;67381;47.672;9.380;2023-02-01T14:08:13;6.97;;;1.97;;
78131;SDS011;67381;47.672;9.380;2023-02-01T14:23:40;10.23;;;2.47;;
78131;SDS011;67381;47.672;9.380;2023-02-01T14:26:08;5.93;;;2.33;;
78131;SDS011;67381;47.672;9.380;2023-02-01T14:28:40;7.28;;;2.83;;
78131;SDS011;67381;47.672;9.380;2023-02-01T14:31:15;8.77;;;2.17;;
78131;SDS011;67381;47.672;9.380;2023-02-01T14:33:43;5.78;;;2.35;;
78131;SDS011;67381;47.672;9.380;2023-02-01T14:36:11;4.78;;;2.45;;
78131;SDS011;67381;47.672;9.380;2023-02-01T14:38:38;7.32;;;2.35;;
78131;SDS011;67381;47.672;9.380;2023-02-01T14:41:46;6.22;;;2.10;;
78131;SDS011;67381;47.672;9.380;2023-02-01T14:49:33;7.38;;;2.47;;
78131;SDS011;67381;47.672;9.380;2023-02-01T14:52:14;7.72;;;2.55;;
78131;SDS011;67381;47.672;9.380;2023-02-01T14:54:49;9.55;;;2.60;;
78131;SDS011;67381;47.672;9.380;2023-02-01T14:57:19;8.48;;;2.47;;
78131;SDS011;67381;47.672;9.380;2023-02-01T14:59:46;6.22;;;2.75;;
78131;SDS011;67381;47.672;9.380;2023-02-01T15:02:21;6.63;;;2.00;;
78131;SDS011;67381;47.672;9.380;2023-02-01T15:04:53;8.65;;;2.55;;
78131;SDS011;67381;47.672;9.380;2023-02-01T15:07:19;5.38;;;1.95;;
78131;SDS011;67381;47.672;9.380;2023-02-01T15:09:46;6.10;;;2.00;;
78131;SDS011;67381;47.672;9.380;2023-02-01T15:15:02;4.22;;;1.92;;
78131;SDS011;67381;47.672;9.380;2023-02-01T15:17:58;6.35;;;2.00;;
78131;SDS011;67381;47.672;9.380;2023-02-01T15:20:31;16.02;;;2.28;;
78131;SDS011;67381;47.672;9.380;2023-02-01T15:23:01;6.72;;;1.98;;
78131;SDS011;67381;47.672;9.380;2023-02-01T15:25:36;10.43;;;2.70;;
78131;SDS011;67381;47.672;9.380;2023-02-01T15:28:03;13.40;;;1.92;;
78131;SDS011;67381;47.672;9.380;2023-02-01T15:30:31;8.93;;;2.22;;
78131;SDS011;67381;47.672;9.380;2023-02-01T15:33:13;9.38;;;3.80;;
78131;SDS011;67381;47.672;9.380;2023-02-01T15:35:45;8.90;;;3.08;;
78131;SDS011;67381;47.672;9.380;2023-02-01T15:38:45;8.27;;;3.25;;
78131;SDS011;67381;47.672;9.380;2023-02-01T15:41:17;11.32;;;2.65;;
78131;SDS011;67381;47.672;9.380;2023-02-01T15:46:36;12.43;;;3.08;;
78131;SDS011;67381;47.672;9.380;2023-02-01T15:49:03;15.70;;;3.03;;
78131;SDS011;67381;47.672;9.380;2023-02-01T15:51:30;6.00;;;2.53;;
78131;SDS011;67381;47.672;9.380;2023-02-01T15:53:58;7.55;;;2.50;;
78131;SDS011;67381;47.672;9.380;2023-02-01T15:56:27;6.28;;;2.60;;
78131;SDS011;67381;47.672;9.380;2023-02-01T15:58:55;7.15;;;1.92;;
78131;SDS011;67381;47.672;9.380;2023-02-01T16:01:23;8.93;;;2.58;;
78131;SDS011;67381;47.672;9.380;2023-02-01T16:03:48;9.07;;;2.72;;
78131;SDS011;67381;47.672;9.380;2023-02-01T16:08:53;8.90;;;3.58;;
78131;SDS011;67381;47.672;9.380;2023-02-01T16:11:31;8.73;;;2.70;;
78131;SDS011;67381;47.672;9.380;2023-02-01T16:13:58;7.72;;;3.25;;
78131;SDS011;67381;47.672;9.380;2023-02-01T16:16:24;8.60;;;3.10;;
78131;SDS011;67381;47.672;9.380;2023-02-01T16:18:50;9.32;;;3.17;;
78131;SDS011;67381;47.672;9.380;2023-02-01T16:21:16;9.73;;;2.72;;
78131;SDS011;67381;47.672;9.380;2023-02-01T16:23:41;7.88;;;2.20;;
78131;SDS011;67381;47.672;9.380;2023-02-01T16:26:06;9.60;;;2.75;;
78131;SDS011;67381;47.672;9.380;2023-02-01T16:28:32;8.55;;;2.40;;
78131;SDS011;67381;47.672;9.380;2023-02-01T16:30:57;8.68;;;2.20;;
78131;SDS011;67381;47.672;9.380;2023-02-01T16:33:24;7.20;;;2.85;;
78131;SDS011;67381;47.672;9.380;2023-02-01T16:35:49;8.52;;;3.78;;
78131;SDS011;67381;47.672;9.380;2023-02-01T16:38:16;9.25;;;2.33;;
78131;SDS011;67381;47.672;9.380;2023-02-01T16:40:44;9.80;;;2.78;;
78131;SDS011;67381;47.672;9.380;2023-02-01T16:45:41;8.85;;;2.95;;
78131;SDS011;67381;47.672;9.380;2023-02-01T16:48:10;5.32;;;2.72;;
78131;SDS011;67381;47.672;9.380;2023-02-01T16:50:43;8.90;;;3.35;;
78131;SDS011;67381;47.672;9.380;2023-02-01T16:53:11;8.00;;;3.33;;
78131;SDS011;67381;47.672;9.380;2023-02-01T16:55:38;6.47;;;3.65;;
78131;SDS011;67381;47.672;9.380;2023-02-01T16:58:04;7.07;;;2.50;;
78131;SDS011;67381;47.672;9.380;2023-02-01T17:00:29;8.80;;;2.58;;
78131;SDS011;67381;47.672;9.380;2023-02-01T17:02:56;8.10;;;3.20;;
78131;SDS011;67381;47.672;9.380;2023-02-01T17:05:21;9.93;;;2.35;;
78131;SDS011;67381;47.672;9.380;2023-02-01T17:07:46;5.53;;;2.42;;
78131;SDS011;67381;47.672;9.380;2023-02-01T17:10:22;10.93;;;2.25;;
78131;SDS011;67381;47.672;9.380;2023-02-01T17:12:50;7.88;;;2.70;;
78131;SDS011;67381;47.672;9.380;2023-02-01T17:15:15;9.05;;;2.15;;
78131;SDS011;67381;47.672;9.380;2023-02-01T17:17:41;10.10;;;3.25;;
78131;SDS011;67381;47.672;9.380;2023-02-01T17:20:09;8.23;;;2.13;;
78131;SDS011;67381;47.672;9.380;2023-02-01T17:22:43;8.57;;;2.50;;
78131;SDS011;67381;47.672;9.380;2023-02-01T17:25:18;10.25;;;3.15;;
78131;SDS011;67381;47.672;9.380;2023-02-01T17:27:45;7.88;;;2.95;;
78131;SDS011;67381;47.672;9.380;2023-02-01T17:30:12;5.85;;;2.72;;
78131;SDS011;67381;47.672;9.380;2023-02-01T17:32:38;7.85;;;2.97;;
78131;SDS011;67381;47.672;9.380;2023-02-01T17:35:03;7.18;;;2.50;;
78131;SDS011;67381;47.672;9.380;2023-02-01T17:37:31;11.75;;;3.65;;
78131;SDS011;67381;47.672;9.380;2023-02-01T17:39:57;9.93;;;2.53;;
78131;SDS011;67381;47.672;9.380;2023-02-01T17:42:23;11.85;;;2.67;;
78131;SDS011;67381;47.672;9.380;2023-02-01T17:44:51;10.23;;;3.75;;
78131;SDS011;67381;47.672;9.380;2023-02-01T17:47:19;6.78;;;2.10;;
78131;SDS011;67381;47.672;9.380;2023-02-01T17:49:45;5.50;;;2.30;;
78131;SDS011;67381;47.672;9.380;2023-02-01T17:52:13;7.13;;;2.28;;
78131;SDS011;67381;47.672;9.380;2023-02-01T17:54:40;5.43;;;2.65;;
78131;SDS011;67381;47.672;9.380;2023-02-01T17:57:10;6.75;;;3.33;;
78131;SDS011;67381;47.672;9.380;2023-02-01T17:59:36;6.80;;;2.38;;
78131;SDS011;67381;47.672;9.380;2023-02-01T18:02:01;7.35;;;2.78;;
78131;SDS011;67381;47.672;9.380;2023-02-01T18:04:27;8.05;;;2.78;;
78131;SDS011;67381;47.672;9.380;2023-02-01T18:06:52;8.52;;;2.33;;
78131;SDS011;67381;47.672;9.380;2023-02-01T18:09:17;4.78;;;1.95;;
78131;SDS011;67381;47.672;9.380;2023-02-01T18:11:43;8.07;;;2.92;;
78131;SDS011;67381;47.672;9.380;2023-02-01T18:14:10;10.90;;;2.63;;
78131;SDS011;67381;47.672;9.380;2023-02-01T18:16:37;5.85;;;2.67;;
78131;SDS011;67381;47.672;9.380;2023-02-01T18:19:02;11.10;;;2.80;;
78131;SDS011;67381;47.672;9.380;2023-02-01T18:21:47;7.43;;;2.05;;
78131;SDS011;67381;47.672;9.380;2023-02-01T18:24:13;7.63;;;2.70;;
78131;SDS011;67381;47.672;9.380;2023-02-01T18:26:40;5.47;;;2.08;;
78131;SDS011;67381;47.672;9.380;2023-02-01T18:29:06;5.80;;;2.10;;